sensor_id;sensor_type;location;lat;lon;timestamp;temperature;humidity
11597;DHT22;5854;48.072;16.286;2022-12-18T00:01:25;0.50;80.10
11597;DHT22;5854;48.072;16.286;2022-12-18T00:03:54;0.40;76.60
11597;DHT22;5854;48.072;16.286;2022-12-18T00:06:22;0.60;79.90
11597;DHT22;5854;48.072;16.286;2022-12-18T00:08:51;0.50;78.40
11597;DHT22;5854;48.072;16.286;2022-12-18T00:11:22;0.50;83.40
11597;DHT22;5854;48.072;16.286;2022-12-18T00:13:53;0.50;79.20
11597;DHT22;5854;48.072;16.286;2022-12-18T00:16:22;0.50;82.40
11597;DHT22;5854;48.072;16.286;2022-12-18T00:18:53;0.70;83.80
11597;DHT22;5854;48.072;16.286;2022-12-18T00:21:21;0.60;80.50
11597;DHT22;5854;48.072;16.286;2022-12-18T00:23:49;0.60;81.80
11597;DHT22;5854;48.072;16.286;2022-12-18T00:26:18;0.70;80.20
11597;DHT22;5854;48.072;16.286;2022-12-18T00:28:46;0.50;65.40
11597;DHT22;5854;48.072;16.286;2022-12-18T00:31:16;0.30;74.10
11597;DHT22;5854;48.072;16.286;2022-12-18T00:33:46;0.40;75.10
11597;DHT22;5854;48.072;16.286;2022-12-18T00:36:15;0.50;78.10
11597;DHT22;5854;48.072;16.286;2022-12-18T00:38:44;0.40;75.70
11597;DHT22;5854;48.072;16.286;2022-12-18T00:41:14;0.30;76.70
11597;DHT22;5854;48.072;16.286;2022-12-18T00:44:02;0.50;77.10
11597;DHT22;5854;48.072;16.286;2022-12-18T00:46:30;0.60;75.90
11597;DHT22;5854;48.072;16.286;2022-12-18T00:48:57;0.70;81.20
11597;DHT22;5854;48.072;16.286;2022-12-18T00:51:25;0.70;79.70
11597;DHT22;5854;48.072;16.286;2022-12-18T00:53:52;0.80;81.90
11597;DHT22;5854;48.072;16.286;2022-12-18T00:56:20;0.90;81.70
11597;DHT22;5854;48.072;16.286;2022-12-18T00:58:47;0.90;82.80
11597;DHT22;5854;48.072;16.286;2022-12-18T01:01:14;0.80;77.00
11597;DHT22;5854;48.072;16.286;2022-12-18T01:03:43;0.70;75.20
11597;DHT22;5854;48.072;16.286;2022-12-18T01:06:12;0.70;81.20
11597;DHT22;5854;48.072;16.286;2022-12-18T01:08:40;0.80;81.40
11597;DHT22;5854;48.072;16.286;2022-12-18T01:11:08;0.70;79.20
11597;DHT22;5854;48.072;16.286;2022-12-18T01:13:37;0.70;79.30
11597;DHT22;5854;48.072;16.286;2022-12-18T01:16:05;0.60;75.00
11597;DHT22;5854;48.072;16.286;2022-12-18T01:18:32;0.60;75.60
11597;DHT22;5854;48.072;16.286;2022-12-18T01:21:02;0.50;73.80
11597;DHT22;5854;48.072;16.286;2022-12-18T01:23:32;0.50;75.90
11597;DHT22;5854;48.072;16.286;2022-12-18T01:26:04;0.60;80.30
11597;DHT22;5854;48.072;16.286;2022-12-18T01:28:32;0.50;78.80
11597;DHT22;5854;48.072;16.286;2022-12-18T01:31:13;0.40;73.90
11597;DHT22;5854;48.072;16.286;2022-12-18T01:33:42;0.40;79.00
11597;DHT22;5854;48.072;16.286;2022-12-18T01:36:17;0.40;78.80
11597;DHT22;5854;48.072;16.286;2022-12-18T01:38:46;0.40;81.40
11597;DHT22;5854;48.072;16.286;2022-12-18T01:41:15;0.40;79.50
11597;DHT22;5854;48.072;16.286;2022-12-18T01:43:49;0.40;81.40
11597;DHT22;5854;48.072;16.286;2022-12-18T01:46:20;0.40;77.60
11597;DHT22;5854;48.072;16.286;2022-12-18T01:48:49;0.30;78.80
11597;DHT22;5854;48.072;16.286;2022-12-18T01:51:19;0.30;80.60
11597;DHT22;5854;48.072;16.286;2022-12-18T01:53:47;0.30;84.10
11597;DHT22;5854;48.072;16.286;2022-12-18T01:56:16;0.40;86.30
11597;DHT22;5854;48.072;16.286;2022-12-18T01:58:52;0.40;82.70
11597;DHT22;5854;48.072;16.286;2022-12-18T02:01:22;0.40;85.10
11597;DHT22;5854;48.072;16.286;2022-12-18T02:03:51;0.40;85.90
11597;DHT22;5854;48.072;16.286;2022-12-18T02:06:26;0.40;87.40
11597;DHT22;5854;48.072;16.286;2022-12-18T02:09:03;0.40;86.20
11597;DHT22;5854;48.072;16.286;2022-12-18T02:11:43;0.20;78.70
11597;DHT22;5854;48.072;16.286;2022-12-18T02:14:18;0.00;77.00
11597;DHT22;5854;48.072;16.286;2022-12-18T02:16:53;0.00;79.20
11597;DHT22;5854;48.072;16.286;2022-12-18T02:19:47;0.10;81.70
11597;DHT22;5854;48.072;16.286;2022-12-18T02:22:33;0.10;83.80
11597;DHT22;5854;48.072;16.286;2022-12-18T02:25:13;0.20;86.10
11597;DHT22;5854;48.072;16.286;2022-12-18T02:27:50;0.30;87.60
11597;DHT22;5854;48.072;16.286;2022-12-18T02:30:18;0.30;87.70
11597;DHT22;5854;48.072;16.286;2022-12-18T02:32:48;0.30;88.10
11597;DHT22;5854;48.072;16.286;2022-12-18T02:35:20;0.20;86.20
11597;DHT22;5854;48.072;16.286;2022-12-18T02:37:49;0.20;86.90
11597;DHT22;5854;48.072;16.286;2022-12-18T02:40:17;0.00;83.70
11597;DHT22;5854;48.072;16.286;2022-12-18T02:42:45;0.00;85.70
11597;DHT22;5854;48.072;16.286;2022-12-18T02:45:14;0.10;88.80
11597;DHT22;5854;48.072;16.286;2022-12-18T02:47:43;0.00;85.90
11597;DHT22;5854;48.072;16.286;2022-12-18T02:50:18;0.00;87.20
11597;DHT22;5854;48.072;16.286;2022-12-18T02:52:56;0.00;87.50
11597;DHT22;5854;48.072;16.286;2022-12-18T02:55:40;0.10;88.60
11597;DHT22;5854;48.072;16.286;2022-12-18T02:58:17;0.00;87.80
11597;DHT22;5854;48.072;16.286;2022-12-18T03:00:51;-0.10;79.40
11597;DHT22;5854;48.072;16.286;2022-12-18T03:03:26;-0.50;72.30
11597;DHT22;5854;48.072;16.286;2022-12-18T03:06:00;-0.60;74.30
11597;DHT22;5854;48.072;16.286;2022-12-18T03:08:33;-0.70;72.80
11597;DHT22;5854;48.072;16.286;2022-12-18T03:11:06;-0.50;79.30
11597;DHT22;5854;48.072;16.286;2022-12-18T03:13:36;-0.50;76.50
11597;DHT22;5854;48.072;16.286;2022-12-18T03:16:09;-0.60;74.20
11597;DHT22;5854;48.072;16.286;2022-12-18T03:18:41;-0.50;77.40
11597;DHT22;5854;48.072;16.286;2022-12-18T03:21:13;-0.40;79.70
11597;DHT22;5854;48.072;16.286;2022-12-18T03:23:45;-0.40;81.10
11597;DHT22;5854;48.072;16.286;2022-12-18T03:26:17;-0.30;82.90
11597;DHT22;5854;48.072;16.286;2022-12-18T03:28:50;-0.30;81.90
11597;DHT22;5854;48.072;16.286;2022-12-18T03:31:22;-0.50;78.00
11597;DHT22;5854;48.072;16.286;2022-12-18T03:33:52;-0.40;80.30
11597;DHT22;5854;48.072;16.286;2022-12-18T03:36:20;-0.50;76.80
11597;DHT22;5854;48.072;16.286;2022-12-18T03:38:47;-0.60;72.90
11597;DHT22;5854;48.072;16.286;2022-12-18T03:41:19;-0.70;71.10
11597;DHT22;5854;48.072;16.286;2022-12-18T03:43:52;-0.60;81.10
11597;DHT22;5854;48.072;16.286;2022-12-18T03:46:28;-0.50;80.90
11597;DHT22;5854;48.072;16.286;2022-12-18T03:49:01;-0.60;78.40
11597;DHT22;5854;48.072;16.286;2022-12-18T03:51:40;-0.60;79.00
11597;DHT22;5854;48.072;16.286;2022-12-18T03:54:10;-0.70;75.00
11597;DHT22;5854;48.072;16.286;2022-12-18T03:56:42;-0.60;79.40
11597;DHT22;5854;48.072;16.286;2022-12-18T03:59:13;-0.60;81.80
11597;DHT22;5854;48.072;16.286;2022-12-18T04:01:46;-0.50;83.70
11597;DHT22;5854;48.072;16.286;2022-12-18T04:04:15;-0.60;77.50
11597;DHT22;5854;48.072;16.286;2022-12-18T04:06:43;-0.60;81.70
11597;DHT22;5854;48.072;16.286;2022-12-18T04:09:12;-0.60;82.60
11597;DHT22;5854;48.072;16.286;2022-12-18T04:11:40;-0.60;79.90
11597;DHT22;5854;48.072;16.286;2022-12-18T04:14:09;-0.70;77.50
11597;DHT22;5854;48.072;16.286;2022-12-18T04:16:37;-0.90;75.50
11597;DHT22;5854;48.072;16.286;2022-12-18T04:19:05;-0.90;77.50
11597;DHT22;5854;48.072;16.286;2022-12-18T04:21:32;-0.90;85.20
11597;DHT22;5854;48.072;16.286;2022-12-18T04:23:59;-0.80;88.40
11597;DHT22;5854;48.072;16.286;2022-12-18T04:26:26;-0.90;83.20
11597;DHT22;5854;48.072;16.286;2022-12-18T04:28:53;-1.00;83.60
11597;DHT22;5854;48.072;16.286;2022-12-18T04:31:21;-1.00;80.10
11597;DHT22;5854;48.072;16.286;2022-12-18T04:33:48;-1.10;74.50
11597;DHT22;5854;48.072;16.286;2022-12-18T04:36:16;-0.90;82.10
11597;DHT22;5854;48.072;16.286;2022-12-18T04:38:43;-0.90;80.80
11597;DHT22;5854;48.072;16.286;2022-12-18T04:41:12;-1.10;75.00
11597;DHT22;5854;48.072;16.286;2022-12-18T04:43:39;-1.10;74.40
11597;DHT22;5854;48.072;16.286;2022-12-18T04:46:07;-1.20;69.90
11597;DHT22;5854;48.072;16.286;2022-12-18T04:48:35;-1.20;78.70
11597;DHT22;5854;48.072;16.286;2022-12-18T04:51:02;-1.00;83.30
11597;DHT22;5854;48.072;16.286;2022-12-18T04:53:31;-1.00;80.10
11597;DHT22;5854;48.072;16.286;2022-12-18T04:56:07;-0.90;81.70
11597;DHT22;5854;48.072;16.286;2022-12-18T04:58:35;-0.90;81.70
11597;DHT22;5854;48.072;16.286;2022-12-18T05:01:02;-0.90;81.10
11597;DHT22;5854;48.072;16.286;2022-12-18T05:03:30;-0.90;83.20
11597;DHT22;5854;48.072;16.286;2022-12-18T05:05:57;-0.90;82.40
11597;DHT22;5854;48.072;16.286;2022-12-18T05:08:24;-0.90;84.50
11597;DHT22;5854;48.072;16.286;2022-12-18T05:10:59;-0.80;85.70
11597;DHT22;5854;48.072;16.286;2022-12-18T05:13:27;-0.90;85.60
11597;DHT22;5854;48.072;16.286;2022-12-18T05:15:54;-1.00;83.70
11597;DHT22;5854;48.072;16.286;2022-12-18T05:18:22;-1.10;79.00
11597;DHT22;5854;48.072;16.286;2022-12-18T05:20:49;-1.10;82.40
11597;DHT22;5854;48.072;16.286;2022-12-18T05:23:16;-1.20;78.50
11597;DHT22;5854;48.072;16.286;2022-12-18T05:25:47;-1.20;75.90
11597;DHT22;5854;48.072;16.286;2022-12-18T05:28:18;-1.30;77.10
11597;DHT22;5854;48.072;16.286;2022-12-18T05:30:48;-1.30;77.80
11597;DHT22;5854;48.072;16.286;2022-12-18T05:33:16;-1.40;73.60
11597;DHT22;5854;48.072;16.286;2022-12-18T05:35:43;-1.40;73.80
11597;DHT22;5854;48.072;16.286;2022-12-18T05:38:10;-1.30;80.20
11597;DHT22;5854;48.072;16.286;2022-12-18T05:40:41;-1.40;74.50
11597;DHT22;5854;48.072;16.286;2022-12-18T05:43:09;-1.30;80.40
11597;DHT22;5854;48.072;16.286;2022-12-18T05:45:38;-1.40;75.00
11597;DHT22;5854;48.072;16.286;2022-12-18T05:48:06;-1.30;79.80
11597;DHT22;5854;48.072;16.286;2022-12-18T05:50:34;-1.20;83.10
11597;DHT22;5854;48.072;16.286;2022-12-18T05:53:02;-1.20;82.60
11597;DHT22;5854;48.072;16.286;2022-12-18T05:55:29;-1.30;80.20
11597;DHT22;5854;48.072;16.286;2022-12-18T05:57:56;-1.30;83.10
11597;DHT22;5854;48.072;16.286;2022-12-18T06:00:23;-1.20;85.30
11597;DHT22;5854;48.072;16.286;2022-12-18T06:02:51;-1.20;85.10
11597;DHT22;5854;48.072;16.286;2022-12-18T06:05:19;-1.20;85.30
11597;DHT22;5854;48.072;16.286;2022-12-18T06:07:46;-1.30;79.30
11597;DHT22;5854;48.072;16.286;2022-12-18T06:10:13;-1.40;80.00
11597;DHT22;5854;48.072;16.286;2022-12-18T06:12:40;-1.40;79.90
11597;DHT22;5854;48.072;16.286;2022-12-18T06:15:08;-1.40;80.50
11597;DHT22;5854;48.072;16.286;2022-12-18T06:17:35;-1.40;83.60
11597;DHT22;5854;48.072;16.286;2022-12-18T06:20:05;-1.40;83.10
11597;DHT22;5854;48.072;16.286;2022-12-18T06:22:32;-1.40;83.50
11597;DHT22;5854;48.072;16.286;2022-12-18T06:25:00;-1.40;84.10
11597;DHT22;5854;48.072;16.286;2022-12-18T06:27:27;-1.40;82.50
11597;DHT22;5854;48.072;16.286;2022-12-18T06:29:54;-1.50;80.10
11597;DHT22;5854;48.072;16.286;2022-12-18T06:32:21;-1.70;72.40
11597;DHT22;5854;48.072;16.286;2022-12-18T06:34:48;-1.80;75.90
11597;DHT22;5854;48.072;16.286;2022-12-18T06:37:17;-1.80;74.10
11597;DHT22;5854;48.072;16.286;2022-12-18T06:39:44;-1.80;77.80
11597;DHT22;5854;48.072;16.286;2022-12-18T06:42:11;-1.70;82.60
11597;DHT22;5854;48.072;16.286;2022-12-18T06:44:38;-1.60;83.90
11597;DHT22;5854;48.072;16.286;2022-12-18T06:47:05;-1.60;82.00
11597;DHT22;5854;48.072;16.286;2022-12-18T06:49:32;-1.90;72.10
11597;DHT22;5854;48.072;16.286;2022-12-18T06:51:59;-1.90;73.80
11597;DHT22;5854;48.072;16.286;2022-12-18T06:54:28;-2.00;74.70
11597;DHT22;5854;48.072;16.286;2022-12-18T06:56:55;-1.70;83.00
11597;DHT22;5854;48.072;16.286;2022-12-18T06:59:22;-1.70;83.20
11597;DHT22;5854;48.072;16.286;2022-12-18T07:01:49;-1.60;84.70
11597;DHT22;5854;48.072;16.286;2022-12-18T07:04:16;-1.70;78.40
11597;DHT22;5854;48.072;16.286;2022-12-18T07:06:44;-1.80;73.30
11597;DHT22;5854;48.072;16.286;2022-12-18T07:09:12;-1.80;79.80
11597;DHT22;5854;48.072;16.286;2022-12-18T07:11:41;-1.60;82.60
11597;DHT22;5854;48.072;16.286;2022-12-18T07:14:08;-1.60;83.20
11597;DHT22;5854;48.072;16.286;2022-12-18T07:16:36;-1.60;84.80
11597;DHT22;5854;48.072;16.286;2022-12-18T07:19:05;-1.60;79.90
11597;DHT22;5854;48.072;16.286;2022-12-18T07:21:40;-1.80;73.80
11597;DHT22;5854;48.072;16.286;2022-12-18T07:24:10;-1.80;77.00
11597;DHT22;5854;48.072;16.286;2022-12-18T07:26:39;-1.80;79.30
11597;DHT22;5854;48.072;16.286;2022-12-18T07:29:07;-1.60;83.40
11597;DHT22;5854;48.072;16.286;2022-12-18T07:31:37;-1.70;78.60
11597;DHT22;5854;48.072;16.286;2022-12-18T07:34:43;-1.80;75.70
11597;DHT22;5854;48.072;16.286;2022-12-18T07:37:15;-1.90;74.20
11597;DHT22;5854;48.072;16.286;2022-12-18T07:39:42;-1.80;80.90
11597;DHT22;5854;48.072;16.286;2022-12-18T07:42:13;-1.70;81.50
11597;DHT22;5854;48.072;16.286;2022-12-18T07:47:28;-1.60;83.20
11597;DHT22;5854;48.072;16.286;2022-12-18T07:50:00;-1.60;83.90
11597;DHT22;5854;48.072;16.286;2022-12-18T07:52:28;-1.60;84.30
11597;DHT22;5854;48.072;16.286;2022-12-18T08:02:43;-1.60;81.20
11597;DHT22;5854;48.072;16.286;2022-12-18T08:05:10;-1.60;82.20
11597;DHT22;5854;48.072;16.286;2022-12-18T08:07:39;-1.60;82.80
11597;DHT22;5854;48.072;16.286;2022-12-18T08:18:00;-1.50;83.90
11597;DHT22;5854;48.072;16.286;2022-12-18T08:20:27;-1.50;83.60
11597;DHT22;5854;48.072;16.286;2022-12-18T08:22:54;-1.60;79.20
11597;DHT22;5854;48.072;16.286;2022-12-18T08:25:21;-1.70;75.00
11597;DHT22;5854;48.072;16.286;2022-12-18T08:27:51;-1.60;79.80
11597;DHT22;5854;48.072;16.286;2022-12-18T08:30:18;-1.70;76.20
11597;DHT22;5854;48.072;16.286;2022-12-18T08:32:45;-1.60;78.10
11597;DHT22;5854;48.072;16.286;2022-12-18T08:37:47;-1.50;81.00
11597;DHT22;5854;48.072;16.286;2022-12-18T08:40:14;-1.40;81.10
11597;DHT22;5854;48.072;16.286;2022-12-18T08:42:45;-1.40;81.50
11597;DHT22;5854;48.072;16.286;2022-12-18T08:45:29;-1.40;81.40
11597;DHT22;5854;48.072;16.286;2022-12-18T08:47:57;-1.40;80.70
11597;DHT22;5854;48.072;16.286;2022-12-18T08:50:30;-1.30;81.10
11597;DHT22;5854;48.072;16.286;2022-12-18T08:52:58;-1.30;79.70
11597;DHT22;5854;48.072;16.286;2022-12-18T08:55:25;-1.30;79.70
11597;DHT22;5854;48.072;16.286;2022-12-18T08:57:53;-1.20;81.20
11597;DHT22;5854;48.072;16.286;2022-12-18T09:00:20;-1.00;82.60
11597;DHT22;5854;48.072;16.286;2022-12-18T09:02:47;-1.00;76.80
11597;DHT22;5854;48.072;16.286;2022-12-18T09:05:14;-1.20;76.60
11597;DHT22;5854;48.072;16.286;2022-12-18T09:07:42;-1.10;78.60
11597;DHT22;5854;48.072;16.286;2022-12-18T09:10:10;-1.10;79.10
11597;DHT22;5854;48.072;16.286;2022-12-18T09:12:37;-1.00;78.40
11597;DHT22;5854;48.072;16.286;2022-12-18T09:15:05;-1.00;78.20
11597;DHT22;5854;48.072;16.286;2022-12-18T09:17:33;-1.00;77.30
11597;DHT22;5854;48.072;16.286;2022-12-18T09:20:00;-1.10;78.00
11597;DHT22;5854;48.072;16.286;2022-12-18T09:22:27;-1.10;74.70
11597;DHT22;5854;48.072;16.286;2022-12-18T09:24:54;-1.20;74.80
11597;DHT22;5854;48.072;16.286;2022-12-18T09:27:23;-1.10;75.40
11597;DHT22;5854;48.072;16.286;2022-12-18T09:29:50;-1.10;74.90
11597;DHT22;5854;48.072;16.286;2022-12-18T09:32:17;-1.10;75.60
11597;DHT22;5854;48.072;16.286;2022-12-18T09:34:44;-1.00;77.10
11597;DHT22;5854;48.072;16.286;2022-12-18T09:37:11;-1.00;77.20
11597;DHT22;5854;48.072;16.286;2022-12-18T09:39:38;-1.10;75.50
11597;DHT22;5854;48.072;16.286;2022-12-18T09:42:05;-1.10;76.30
11597;DHT22;5854;48.072;16.286;2022-12-18T09:44:36;-1.00;76.80
11597;DHT22;5854;48.072;16.286;2022-12-18T09:47:10;-1.10;73.90
11597;DHT22;5854;48.072;16.286;2022-12-18T09:49:42;-1.30;70.70
11597;DHT22;5854;48.072;16.286;2022-12-18T09:52:16;-1.40;71.90
11597;DHT22;5854;48.072;16.286;2022-12-18T09:54:50;-1.30;74.00
11597;DHT22;5854;48.072;16.286;2022-12-18T09:57:21;-1.30;72.50
11597;DHT22;5854;48.072;16.286;2022-12-18T09:59:54;-1.30;74.20
11597;DHT22;5854;48.072;16.286;2022-12-18T10:02:24;-1.30;76.10
11597;DHT22;5854;48.072;16.286;2022-12-18T10:05:03;-1.10;75.20
11597;DHT22;5854;48.072;16.286;2022-12-18T10:07:43;-1.30;71.20
11597;DHT22;5854;48.072;16.286;2022-12-18T10:10:23;-1.60;71.60
11597;DHT22;5854;48.072;16.286;2022-12-18T10:13:00;-1.60;72.40
11597;DHT22;5854;48.072;16.286;2022-12-18T10:15:38;-1.40;76.30
11597;DHT22;5854;48.072;16.286;2022-12-18T10:18:17;-1.40;73.00
11597;DHT22;5854;48.072;16.286;2022-12-18T10:20:52;-1.50;72.80
11597;DHT22;5854;48.072;16.286;2022-12-18T10:23:27;-1.40;73.60
11597;DHT22;5854;48.072;16.286;2022-12-18T10:26:02;-1.50;72.00
11597;DHT22;5854;48.072;16.286;2022-12-18T10:28:32;-1.40;73.80
11597;DHT22;5854;48.072;16.286;2022-12-18T10:31:02;-1.40;74.30
11597;DHT22;5854;48.072;16.286;2022-12-18T10:33:30;-1.20;77.40
11597;DHT22;5854;48.072;16.286;2022-12-18T10:35:58;-1.20;73.10
11597;DHT22;5854;48.072;16.286;2022-12-18T10:38:27;-1.30;71.90
11597;DHT22;5854;48.072;16.286;2022-12-18T10:40:57;-1.40;73.60
11597;DHT22;5854;48.072;16.286;2022-12-18T10:43:27;-1.40;72.90
11597;DHT22;5854;48.072;16.286;2022-12-18T10:46:04;-1.40;74.80
11597;DHT22;5854;48.072;16.286;2022-12-18T10:48:47;-1.50;71.90
11597;DHT22;5854;48.072;16.286;2022-12-18T10:51:21;-1.40;76.50
11597;DHT22;5854;48.072;16.286;2022-12-18T10:53:56;-1.30;77.80
11597;DHT22;5854;48.072;16.286;2022-12-18T10:56:27;-1.30;75.30
11597;DHT22;5854;48.072;16.286;2022-12-18T10:58:59;-1.20;76.70
11597;DHT22;5854;48.072;16.286;2022-12-18T11:01:44;-1.30;74.50
11597;DHT22;5854;48.072;16.286;2022-12-18T11:04:17;-1.40;75.30
11597;DHT22;5854;48.072;16.286;2022-12-18T11:06:54;-1.20;77.00
11597;DHT22;5854;48.072;16.286;2022-12-18T11:09:24;-1.30;74.90
11597;DHT22;5854;48.072;16.286;2022-12-18T11:11:53;-1.30;76.70
11597;DHT22;5854;48.072;16.286;2022-12-18T11:14:23;-1.30;75.00
11597;DHT22;5854;48.072;16.286;2022-12-18T11:16:54;-1.20;76.00
11597;DHT22;5854;48.072;16.286;2022-12-18T11:19:32;-1.20;76.10
11597;DHT22;5854;48.072;16.286;2022-12-18T11:22:01;-1.10;73.70
11597;DHT22;5854;48.072;16.286;2022-12-18T11:24:32;-1.20;75.10
11597;DHT22;5854;48.072;16.286;2022-12-18T11:27:02;-1.20;73.20
11597;DHT22;5854;48.072;16.286;2022-12-18T11:29:34;-1.20;73.10
11597;DHT22;5854;48.072;16.286;2022-12-18T11:32:32;-1.20;76.20
11597;DHT22;5854;48.072;16.286;2022-12-18T11:35:14;-1.20;73.60
11597;DHT22;5854;48.072;16.286;2022-12-18T11:37:48;-1.20;71.90
11597;DHT22;5854;48.072;16.286;2022-12-18T11:40:20;-1.00;74.40
11597;DHT22;5854;48.072;16.286;2022-12-18T11:42:56;-1.00;72.70
11597;DHT22;5854;48.072;16.286;2022-12-18T11:45:29;-1.10;71.30
11597;DHT22;5854;48.072;16.286;2022-12-18T11:48:03;-1.00;75.00
11597;DHT22;5854;48.072;16.286;2022-12-18T11:50:41;-0.90;73.80
11597;DHT22;5854;48.072;16.286;2022-12-18T11:53:13;-0.80;76.60
11597;DHT22;5854;48.072;16.286;2022-12-18T11:55:48;-0.70;77.30
11597;DHT22;5854;48.072;16.286;2022-12-18T11:58:28;-0.80;72.60
11597;DHT22;5854;48.072;16.286;2022-12-18T12:01:10;-0.80;72.50
11597;DHT22;5854;48.072;16.286;2022-12-18T12:07:17;-0.90;71.80
11597;DHT22;5854;48.072;16.286;2022-12-18T12:09:55;-1.00;74.70
11597;DHT22;5854;48.072;16.286;2022-12-18T12:12:36;-1.00;74.50
11597;DHT22;5854;48.072;16.286;2022-12-18T12:15:19;-0.90;75.30
11597;DHT22;5854;48.072;16.286;2022-12-18T12:17:57;-0.90;74.00
11597;DHT22;5854;48.072;16.286;2022-12-18T12:20:42;-0.90;74.40
11597;DHT22;5854;48.072;16.286;2022-12-18T12:23:21;-0.80;75.50
11597;DHT22;5854;48.072;16.286;2022-12-18T12:25:56;-0.90;71.90
11597;DHT22;5854;48.072;16.286;2022-12-18T12:28:42;-0.90;74.20
11597;DHT22;5854;48.072;16.286;2022-12-18T12:31:24;-0.90;74.00
11597;DHT22;5854;48.072;16.286;2022-12-18T12:34:01;-0.80;74.90
11597;DHT22;5854;48.072;16.286;2022-12-18T12:36:41;-0.80;75.50
11597;DHT22;5854;48.072;16.286;2022-12-18T12:39:19;-0.90;72.30
11597;DHT22;5854;48.072;16.286;2022-12-18T12:41:58;-0.90;72.20
11597;DHT22;5854;48.072;16.286;2022-12-18T12:44:45;-1.10;70.30
11597;DHT22;5854;48.072;16.286;2022-12-18T12:47:18;-1.10;76.20
11597;DHT22;5854;48.072;16.286;2022-12-18T12:49:49;-0.90;77.40
11597;DHT22;5854;48.072;16.286;2022-12-18T12:52:24;-0.90;73.50
11597;DHT22;5854;48.072;16.286;2022-12-18T12:54:56;-1.00;73.60
11597;DHT22;5854;48.072;16.286;2022-12-18T12:57:30;-1.10;73.70
11597;DHT22;5854;48.072;16.286;2022-12-18T13:02:34;-1.10;75.50
11597;DHT22;5854;48.072;16.286;2022-12-18T13:05:09;-1.00;76.00
11597;DHT22;5854;48.072;16.286;2022-12-18T13:07:51;-0.90;75.10
11597;DHT22;5854;48.072;16.286;2022-12-18T13:10:32;-0.90;76.10
11597;DHT22;5854;48.072;16.286;2022-12-18T13:13:04;-0.90;75.90
11597;DHT22;5854;48.072;16.286;2022-12-18T13:15:40;-0.90;75.40
11597;DHT22;5854;48.072;16.286;2022-12-18T13:18:20;-1.00;74.80
11597;DHT22;5854;48.072;16.286;2022-12-18T13:20:50;-1.00;77.00
11597;DHT22;5854;48.072;16.286;2022-12-18T13:23:33;-1.10;79.40
11597;DHT22;5854;48.072;16.286;2022-12-18T13:26:29;-1.00;79.80
11597;DHT22;5854;48.072;16.286;2022-12-18T13:28:59;-1.10;78.80
11597;DHT22;5854;48.072;16.286;2022-12-18T13:34:45;-1.00;76.90
11597;DHT22;5854;48.072;16.286;2022-12-18T13:37:42;-1.10;75.50
11597;DHT22;5854;48.072;16.286;2022-12-18T13:43:31;-1.00;78.20
11597;DHT22;5854;48.072;16.286;2022-12-18T13:46:26;-0.90;77.40
11597;DHT22;5854;48.072;16.286;2022-12-18T13:48:57;-0.90;77.10
11597;DHT22;5854;48.072;16.286;2022-12-18T13:51:27;-0.90;75.40
11597;DHT22;5854;48.072;16.286;2022-12-18T13:53:58;-0.90;76.40
11597;DHT22;5854;48.072;16.286;2022-12-18T13:56:29;-1.00;73.90
11597;DHT22;5854;48.072;16.286;2022-12-18T13:59:14;-1.00;77.30
11597;DHT22;5854;48.072;16.286;2022-12-18T14:01:46;-1.00;78.80
11597;DHT22;5854;48.072;16.286;2022-12-18T14:04:21;-1.00;80.30
11597;DHT22;5854;48.072;16.286;2022-12-18T14:06:57;-1.00;80.20
11597;DHT22;5854;48.072;16.286;2022-12-18T14:09:31;-0.90;80.60
11597;DHT22;5854;48.072;16.286;2022-12-18T14:12:03;-1.10;79.00
11597;DHT22;5854;48.072;16.286;2022-12-18T14:14:50;-1.00;79.30
11597;DHT22;5854;48.072;16.286;2022-12-18T14:17:18;-1.00;82.40
11597;DHT22;5854;48.072;16.286;2022-12-18T14:19:47;-0.90;82.90
11597;DHT22;5854;48.072;16.286;2022-12-18T14:22:17;-1.10;76.20
11597;DHT22;5854;48.072;16.286;2022-12-18T14:27:24;-1.10;78.60
11597;DHT22;5854;48.072;16.286;2022-12-18T14:29:52;-1.00;80.50
11597;DHT22;5854;48.072;16.286;2022-12-18T14:32:21;-1.00;80.80
11597;DHT22;5854;48.072;16.286;2022-12-18T14:34:50;-0.80;81.20
11597;DHT22;5854;48.072;16.286;2022-12-18T14:37:22;-0.70;81.70
11597;DHT22;5854;48.072;16.286;2022-12-18T14:39:57;-0.70;80.80
11597;DHT22;5854;48.072;16.286;2022-12-18T14:45:33;-1.00;76.40
11597;DHT22;5854;48.072;16.286;2022-12-18T14:48:06;-1.00;77.80
11597;DHT22;5854;48.072;16.286;2022-12-18T14:50:34;-1.20;77.20
11597;DHT22;5854;48.072;16.286;2022-12-18T14:53:04;-1.20;79.70
11597;DHT22;5854;48.072;16.286;2022-12-18T14:55:33;-1.10;78.50
11597;DHT22;5854;48.072;16.286;2022-12-18T14:58:01;-1.30;77.60
11597;DHT22;5854;48.072;16.286;2022-12-18T15:00:29;-1.20;80.80
11597;DHT22;5854;48.072;16.286;2022-12-18T15:02:58;-1.10;81.90
11597;DHT22;5854;48.072;16.286;2022-12-18T15:05:27;-1.00;82.10
11597;DHT22;5854;48.072;16.286;2022-12-18T15:07:56;-1.10;78.20
11597;DHT22;5854;48.072;16.286;2022-12-18T15:10:26;-1.00;79.30
11597;DHT22;5854;48.072;16.286;2022-12-18T15:13:08;-1.20;77.70
11597;DHT22;5854;48.072;16.286;2022-12-18T15:15:45;-1.10;80.50
11597;DHT22;5854;48.072;16.286;2022-12-18T15:18:15;-1.00;81.90
11597;DHT22;5854;48.072;16.286;2022-12-18T15:20:45;-1.00;79.60
11597;DHT22;5854;48.072;16.286;2022-12-18T15:23:24;-1.10;76.90
11597;DHT22;5854;48.072;16.286;2022-12-18T15:25:58;-1.20;77.60
11597;DHT22;5854;48.072;16.286;2022-12-18T15:28:29;-1.20;77.70
11597;DHT22;5854;48.072;16.286;2022-12-18T15:31:00;-1.30;77.70
11597;DHT22;5854;48.072;16.286;2022-12-18T15:33:33;-1.20;80.90
11597;DHT22;5854;48.072;16.286;2022-12-18T15:36:02;-1.20;81.40
11597;DHT22;5854;48.072;16.286;2022-12-18T15:38:31;-1.30;79.50
11597;DHT22;5854;48.072;16.286;2022-12-18T15:40:58;-1.20;81.80
11597;DHT22;5854;48.072;16.286;2022-12-18T15:43:26;-1.10;82.30
11597;DHT22;5854;48.072;16.286;2022-12-18T15:45:59;-1.10;82.60
11597;DHT22;5854;48.072;16.286;2022-12-18T15:48:26;-0.90;84.50
11597;DHT22;5854;48.072;16.286;2022-12-18T15:50:56;-0.90;81.90
11597;DHT22;5854;48.072;16.286;2022-12-18T15:53:26;-1.10;79.40
11597;DHT22;5854;48.072;16.286;2022-12-18T15:55:55;-1.00;82.30
11597;DHT22;5854;48.072;16.286;2022-12-18T15:58:41;-0.90;82.00
11597;DHT22;5854;48.072;16.286;2022-12-18T16:01:09;-0.90;80.40
11597;DHT22;5854;48.072;16.286;2022-12-18T16:03:37;-0.90;81.70
11597;DHT22;5854;48.072;16.286;2022-12-18T16:06:06;-0.90;82.50
11597;DHT22;5854;48.072;16.286;2022-12-18T16:08:33;-0.80;83.00
11597;DHT22;5854;48.072;16.286;2022-12-18T16:11:01;-0.80;82.90
11597;DHT22;5854;48.072;16.286;2022-12-18T16:13:28;-0.70;82.90
11597;DHT22;5854;48.072;16.286;2022-12-18T16:15:55;-0.70;82.40
11597;DHT22;5854;48.072;16.286;2022-12-18T16:18:23;-0.60;82.30
11597;DHT22;5854;48.072;16.286;2022-12-18T16:20:50;-0.60;81.80
11597;DHT22;5854;48.072;16.286;2022-12-18T16:23:18;-0.60;81.80
11597;DHT22;5854;48.072;16.286;2022-12-18T16:25:45;-0.60;80.40
11597;DHT22;5854;48.072;16.286;2022-12-18T16:28:13;-0.70;80.70
11597;DHT22;5854;48.072;16.286;2022-12-18T16:30:40;-0.60;82.80
11597;DHT22;5854;48.072;16.286;2022-12-18T16:33:09;-0.70;80.60
11597;DHT22;5854;48.072;16.286;2022-12-18T16:35:36;-0.70;81.00
11597;DHT22;5854;48.072;16.286;2022-12-18T16:38:04;-0.60;81.70